TimeCDT,TemperatureF,Dew PointF,Humidity,Sea Level PressureIn,VisibilityMPH,Wind Direction,Wind SpeedMPH,Gust SpeedMPH,PrecipitationIn,Events,Conditions,WindDirDegrees,DateUTC
12:53 AM,42.1,37.0,82,30.14,10.0,WSW,3.5,-,N/A,,Clear,240,2012-10-30 05:53:00
2:53 AM,42.1,36.0,79,30.12,9.0,SSW,3.5,-,N/A,,Clear,210,2012-10-30 07:53:00
3:53 AM,41.0,36.0,82,30.10,10.0,Calm,Calm,-,N/A,,Clear,0,2012-10-30 08:53:00
4:53 AM,39.0,36.0,89,30.11,10.0,Calm,Calm,-,N/A,,Clear,0,2012-10-30 09:53:00
5:53 AM,39.0,37.0,93,30.11,9.0,Calm,Calm,-,N/A,,Clear,0,2012-10-30 10:53:00
6:53 AM,39.9,37.9,93,30.12,9.0,Calm,Calm,-,N/A,,Clear,0,2012-10-30 11:53:00
7:53 AM,39.0,37.0,93,30.11,9.0,Calm,Calm,-,N/A,,Clear,0,2012-10-30 12:53:00
8:53 AM,46.9,39.0,74,30.12,10.0,Calm,Calm,-,N/A,,Clear,0,2012-10-30 13:53:00
9:53 AM,53.1,41.0,64,30.12,10.0,WSW,3.5,-,N/A,,Clear,240,2012-10-30 14:53:00
10:53 AM,57.0,39.9,53,30.11,10.0,WSW,5.8,-,N/A,,Clear,250,2012-10-30 15:53:00
11:53 AM,60.1,39.0,46,30.09,10.0,WSW,6.9,-,N/A,,Clear,250,2012-10-30 16:53:00
1:53 PM,66.9,39.0,36,30.02,10.0,WSW,9.2,-,N/A,,Clear,250,2012-10-30 18:53:00
2:53 PM,69.1,41.0,36,29.98,10.0,Variable,6.9,-,N/A,,Clear,0,2012-10-30 19:53:00
3:53 PM,70.0,41.0,35,29.98,10.0,SW,8.1,-,N/A,,Clear,230,2012-10-30 20:53:00
4:53 PM,70.0,41.0,35,29.96,10.0,South,3.5,-,N/A,,Clear,190,2012-10-30 21:53:00
5:53 PM,66.9,41.0,39,29.96,10.0,SSW,4.6,-,N/A,,Clear,200,2012-10-30 22:53:00
6:53 PM,61.0,43.0,52,29.96,10.0,South,4.6,-,N/A,,Clear,180,2012-10-30 23:53:00
7:53 PM,61.0,43.0,52,29.97,10.0,South,5.8,-,N/A,,Partly Cloudy,180,2012-10-31 00:53:00
8:53 PM,59.0,43.0,55,29.96,10.0,South,6.9,-,N/A,,Clear,180,2012-10-31 01:53:00
9:53 PM,57.0,44.1,62,29.97,10.0,SSW,5.8,-,N/A,,Clear,200,2012-10-31 02:53:00
10:53 PM,55.9,45.0,67,29.97,10.0,South,5.8,-,N/A,,Clear,190,2012-10-31 03:53:00
11:53 PM,55.9,45.0,67,29.97,10.0,SSW,5.8,-,N/A,,Clear,200,2012-10-31 04:53:00